sensor_id;sensor_type;location;lat;lon;timestamp;P1;durP1;ratioP1;P2;durP2;ratioP2
46613;SDS011;32338;50.430;6.806;2022-09-12T00:00:40;395.13;;;370.75;;
46613;SDS011;32338;50.430;6.806;2022-09-12T00:03:07;424.35;;;397.42;;
46613;SDS011;32338;50.430;6.806;2022-09-12T00:05:39;385.13;;;361.00;;
46613;SDS011;32338;50.430;6.806;2022-09-12T00:08:06;417.08;;;390.67;;
46613;SDS011;32338;50.430;6.806;2022-09-12T00:10:35;407.92;;;381.92;;
46613;SDS011;32338;50.430;6.806;2022-09-12T00:13:03;410.38;;;385.00;;
46613;SDS011;32338;50.430;6.806;2022-09-12T00:15:29;440.35;;;411.95;;
46613;SDS011;32338;50.430;6.806;2022-09-12T00:17:57;412.55;;;386.67;;
46613;SDS011;32338;50.430;6.806;2022-09-12T00:20:24;416.85;;;391.10;;
46613;SDS011;32338;50.430;6.806;2022-09-12T00:22:50;428.25;;;401.60;;
46613;SDS011;32338;50.430;6.806;2022-09-12T00:25:17;420.10;;;393.88;;
46613;SDS011;32338;50.430;6.806;2022-09-12T00:27:43;414.92;;;388.85;;
46613;SDS011;32338;50.430;6.806;2022-09-12T00:30:10;415.58;;;390.05;;
46613;SDS011;32338;50.430;6.806;2022-09-12T00:32:37;413.27;;;387.27;;
46613;SDS011;32338;50.430;6.806;2022-09-12T00:35:05;407.23;;;381.75;;
46613;SDS011;32338;50.430;6.806;2022-09-12T00:37:33;404.20;;;378.83;;
46613;SDS011;32338;50.430;6.806;2022-09-12T00:40:00;428.55;;;402.15;;
46613;SDS011;32338;50.430;6.806;2022-09-12T00:42:26;383.70;;;359.95;;
46613;SDS011;32338;50.430;6.806;2022-09-12T00:44:53;365.58;;;342.70;;
46613;SDS011;32338;50.430;6.806;2022-09-12T00:47:21;350.33;;;328.33;;
46613;SDS011;32338;50.430;6.806;2022-09-12T00:49:51;408.33;;;382.15;;
46613;SDS011;32338;50.430;6.806;2022-09-12T00:52:24;409.75;;;384.10;;
46613;SDS011;32338;50.430;6.806;2022-09-12T00:54:56;398.25;;;373.08;;
46613;SDS011;32338;50.430;6.806;2022-09-12T00:57:27;395.92;;;370.60;;
46613;SDS011;32338;50.430;6.806;2022-09-12T00:59:57;411.50;;;385.50;;
46613;SDS011;32338;50.430;6.806;2022-09-12T01:02:29;423.75;;;396.88;;
46613;SDS011;32338;50.430;6.806;2022-09-12T01:04:56;388.95;;;364.52;;
46613;SDS011;32338;50.430;6.806;2022-09-12T01:07:24;418.42;;;392.48;;
46613;SDS011;32338;50.430;6.806;2022-09-12T01:09:51;411.13;;;385.20;;
46613;SDS011;32338;50.430;6.806;2022-09-12T01:12:17;415.40;;;389.23;;
46613;SDS011;32338;50.430;6.806;2022-09-12T01:14:44;396.30;;;371.35;;
46613;SDS011;32338;50.430;6.806;2022-09-12T01:17:11;399.55;;;374.38;;
46613;SDS011;32338;50.430;6.806;2022-09-12T01:19:47;395.02;;;370.38;;
46613;SDS011;32338;50.430;6.806;2022-09-12T01:22:43;419.85;;;392.95;;
46613;SDS011;32338;50.430;6.806;2022-09-12T01:25:27;396.90;;;371.58;;
46613;SDS011;32338;50.430;6.806;2022-09-12T01:28:04;398.00;;;372.67;;
46613;SDS011;32338;50.430;6.806;2022-09-12T01:30:51;392.33;;;367.27;;
46613;SDS011;32338;50.430;6.806;2022-09-12T01:33:31;404.88;;;378.88;;
46613;SDS011;32338;50.430;6.806;2022-09-12T01:36:08;403.42;;;377.27;;
46613;SDS011;32338;50.430;6.806;2022-09-12T01:38:45;405.33;;;379.98;;
46613;SDS011;32338;50.430;6.806;2022-09-12T01:41:16;394.15;;;368.98;;
46613;SDS011;32338;50.430;6.806;2022-09-12T01:43:55;383.48;;;358.52;;
46613;SDS011;32338;50.430;6.806;2022-09-12T01:46:29;397.25;;;372.85;;
46613;SDS011;32338;50.430;6.806;2022-09-12T01:49:00;397.15;;;372.02;;
46613;SDS011;32338;50.430;6.806;2022-09-12T01:51:32;390.52;;;365.98;;
46613;SDS011;32338;50.430;6.806;2022-09-12T01:54:04;381.98;;;358.63;;
46613;SDS011;32338;50.430;6.806;2022-09-12T01:56:35;417.20;;;391.00;;
46613;SDS011;32338;50.430;6.806;2022-09-12T01:59:07;425.20;;;398.25;;
46613;SDS011;32338;50.430;6.806;2022-09-12T02:01:39;416.00;;;389.92;;
46613;SDS011;32338;50.430;6.806;2022-09-12T02:04:11;398.13;;;372.92;;
46613;SDS011;32338;50.430;6.806;2022-09-12T02:06:42;394.42;;;369.27;;
46613;SDS011;32338;50.430;6.806;2022-09-12T02:09:13;401.80;;;376.27;;
46613;SDS011;32338;50.430;6.806;2022-09-12T02:11:46;384.48;;;360.42;;
46613;SDS011;32338;50.430;6.806;2022-09-12T02:14:18;392.30;;;367.80;;
46613;SDS011;32338;50.430;6.806;2022-09-12T02:16:51;388.17;;;363.30;;
46613;SDS011;32338;50.430;6.806;2022-09-12T02:19:22;410.90;;;385.02;;
46613;SDS011;32338;50.430;6.806;2022-09-12T02:21:53;404.55;;;378.65;;
46613;SDS011;32338;50.430;6.806;2022-09-12T02:24:24;392.10;;;366.63;;
46613;SDS011;32338;50.430;6.806;2022-09-12T02:26:54;392.15;;;367.13;;
46613;SDS011;32338;50.430;6.806;2022-09-12T02:29:24;405.88;;;379.40;;
46613;SDS011;32338;50.430;6.806;2022-09-12T02:31:53;411.48;;;384.50;;
46613;SDS011;32338;50.430;6.806;2022-09-12T02:34:28;418.25;;;391.13;;
46613;SDS011;32338;50.430;6.806;2022-09-12T02:37:06;417.95;;;390.95;;
46613;SDS011;32338;50.430;6.806;2022-09-12T02:39:42;398.52;;;373.23;;
46613;SDS011;32338;50.430;6.806;2022-09-12T02:42:10;406.17;;;380.23;;
46613;SDS011;32338;50.430;6.806;2022-09-12T02:44:36;403.27;;;377.55;;
46613;SDS011;32338;50.430;6.806;2022-09-12T02:47:06;409.27;;;382.65;;
46613;SDS011;32338;50.430;6.806;2022-09-12T02:49:37;381.75;;;357.52;;
46613;SDS011;32338;50.430;6.806;2022-09-12T02:52:04;396.27;;;370.42;;
46613;SDS011;32338;50.430;6.806;2022-09-12T02:54:31;415.42;;;388.65;;
46613;SDS011;32338;50.430;6.806;2022-09-12T02:56:58;410.88;;;384.70;;
46613;SDS011;32338;50.430;6.806;2022-09-12T02:59:24;403.83;;;378.55;;
46613;SDS011;32338;50.430;6.806;2022-09-12T03:01:58;404.63;;;378.63;;
46613;SDS011;32338;50.430;6.806;2022-09-12T03:04:40;397.00;;;371.50;;
46613;SDS011;32338;50.430;6.806;2022-09-12T03:07:25;401.17;;;375.88;;
46613;SDS011;32338;50.430;6.806;2022-09-12T03:10:06;397.38;;;372.48;;
46613;SDS011;32338;50.430;6.806;2022-09-12T03:12:45;402.27;;;376.42;;
46613;SDS011;32338;50.430;6.806;2022-09-12T03:15:21;419.17;;;392.30;;
46613;SDS011;32338;50.430;6.806;2022-09-12T03:18:05;382.52;;;357.77;;
46613;SDS011;32338;50.430;6.806;2022-09-12T03:20:44;409.65;;;383.33;;
46613;SDS011;32338;50.430;6.806;2022-09-12T03:23:22;405.88;;;380.45;;
46613;SDS011;32338;50.430;6.806;2022-09-12T03:25:56;404.40;;;378.48;;
46613;SDS011;32338;50.430;6.806;2022-09-12T03:28:27;420.50;;;394.02;;
46613;SDS011;32338;50.430;6.806;2022-09-12T03:30:56;404.70;;;378.85;;
46613;SDS011;32338;50.430;6.806;2022-09-12T03:33:24;381.83;;;357.13;;
46613;SDS011;32338;50.430;6.806;2022-09-12T03:35:53;413.52;;;386.67;;
46613;SDS011;32338;50.430;6.806;2022-09-12T03:38:20;410.33;;;384.42;;
46613;SDS011;32338;50.430;6.806;2022-09-12T03:40:47;418.90;;;392.27;;
46613;SDS011;32338;50.430;6.806;2022-09-12T03:43:13;394.98;;;369.95;;
46613;SDS011;32338;50.430;6.806;2022-09-12T03:45:40;422.02;;;394.95;;
46613;SDS011;32338;50.430;6.806;2022-09-12T03:48:06;436.67;;;408.63;;
46613;SDS011;32338;50.430;6.806;2022-09-12T03:50:33;399.30;;;373.73;;
46613;SDS011;32338;50.430;6.806;2022-09-12T03:53:01;375.42;;;350.75;;
46613;SDS011;32338;50.430;6.806;2022-09-12T03:55:28;387.58;;;362.25;;
46613;SDS011;32338;50.430;6.806;2022-09-12T03:57:55;381.10;;;356.95;;
46613;SDS011;32338;50.430;6.806;2022-09-12T04:00:22;386.02;;;361.38;;
46613;SDS011;32338;50.430;6.806;2022-09-12T04:02:52;404.95;;;377.75;;
46613;SDS011;32338;50.430;6.806;2022-09-12T04:05:19;405.75;;;379.98;;
46613;SDS011;32338;50.430;6.806;2022-09-12T04:07:45;425.70;;;398.38;;
46613;SDS011;32338;50.430;6.806;2022-09-12T04:10:13;387.73;;;362.17;;
46613;SDS011;32338;50.430;6.806;2022-09-12T04:12:40;381.80;;;357.65;;
46613;SDS011;32338;50.430;6.806;2022-09-12T04:15:07;372.27;;;348.70;;
46613;SDS011;32338;50.430;6.806;2022-09-12T04:17:34;397.42;;;371.52;;
46613;SDS011;32338;50.430;6.806;2022-09-12T04:20:01;373.08;;;348.98;;
46613;SDS011;32338;50.430;6.806;2022-09-12T04:22:28;412.38;;;385.58;;
46613;SDS011;32338;50.430;6.806;2022-09-12T04:24:56;410.25;;;383.20;;
46613;SDS011;32338;50.430;6.806;2022-09-12T04:27:24;388.35;;;362.75;;
46613;SDS011;32338;50.430;6.806;2022-09-12T04:29:50;406.80;;;379.63;;
46613;SDS011;32338;50.430;6.806;2022-09-12T04:32:18;400.88;;;374.30;;
46613;SDS011;32338;50.430;6.806;2022-09-12T04:34:44;416.25;;;389.05;;
46613;SDS011;32338;50.430;6.806;2022-09-12T04:37:11;410.85;;;384.60;;
46613;SDS011;32338;50.430;6.806;2022-09-12T04:39:38;370.63;;;346.13;;
46613;SDS011;32338;50.430;6.806;2022-09-12T04:42:05;399.98;;;374.45;;
46613;SDS011;32338;50.430;6.806;2022-09-12T04:44:33;395.80;;;369.77;;
46613;SDS011;32338;50.430;6.806;2022-09-12T04:46:59;378.63;;;353.80;;
46613;SDS011;32338;50.430;6.806;2022-09-12T04:49:27;384.48;;;360.38;;
46613;SDS011;32338;50.430;6.806;2022-09-12T04:51:53;413.27;;;385.00;;
46613;SDS011;32338;50.430;6.806;2022-09-12T04:54:20;427.27;;;400.45;;
46613;SDS011;32338;50.430;6.806;2022-09-12T04:56:47;399.00;;;373.65;;
46613;SDS011;32338;50.430;6.806;2022-09-12T04:59:15;377.02;;;353.20;;
46613;SDS011;32338;50.430;6.806;2022-09-12T05:01:45;397.02;;;371.42;;
46613;SDS011;32338;50.430;6.806;2022-09-12T05:04:12;388.30;;;362.73;;
46613;SDS011;32338;50.430;6.806;2022-09-12T05:06:39;400.52;;;375.40;;
46613;SDS011;32338;50.430;6.806;2022-09-12T05:09:09;375.95;;;351.92;;
46613;SDS011;32338;50.430;6.806;2022-09-12T05:11:37;376.30;;;352.70;;
46613;SDS011;32338;50.430;6.806;2022-09-12T05:14:07;382.05;;;358.15;;
46613;SDS011;32338;50.430;6.806;2022-09-12T05:16:33;353.98;;;331.67;;
46613;SDS011;32338;50.430;6.806;2022-09-12T05:19:01;390.58;;;365.85;;
46613;SDS011;32338;50.430;6.806;2022-09-12T05:21:28;388.25;;;364.02;;
46613;SDS011;32338;50.430;6.806;2022-09-12T05:23:55;384.42;;;360.10;;
46613;SDS011;32338;50.430;6.806;2022-09-12T05:26:23;423.70;;;396.70;;
46613;SDS011;32338;50.430;6.806;2022-09-12T05:28:50;389.50;;;365.17;;
46613;SDS011;32338;50.430;6.806;2022-09-12T05:31:18;389.50;;;365.02;;
46613;SDS011;32338;50.430;6.806;2022-09-12T05:33:46;415.55;;;389.10;;
46613;SDS011;32338;50.430;6.806;2022-09-12T05:36:16;382.90;;;357.90;;
46613;SDS011;32338;50.430;6.806;2022-09-12T05:38:45;399.17;;;374.20;;
46613;SDS011;32338;50.430;6.806;2022-09-12T05:41:12;396.55;;;371.38;;
46613;SDS011;32338;50.430;6.806;2022-09-12T05:43:40;418.70;;;390.83;;
46613;SDS011;32338;50.430;6.806;2022-09-12T05:46:08;396.05;;;371.00;;
46613;SDS011;32338;50.430;6.806;2022-09-12T05:48:36;386.95;;;362.40;;
46613;SDS011;32338;50.430;6.806;2022-09-12T05:51:04;378.65;;;354.63;;
46613;SDS011;32338;50.430;6.806;2022-09-12T05:53:34;398.50;;;373.00;;
46613;SDS011;32338;50.430;6.806;2022-09-12T05:56:05;396.85;;;369.88;;
46613;SDS011;32338;50.430;6.806;2022-09-12T05:58:33;419.75;;;392.88;;
46613;SDS011;32338;50.430;6.806;2022-09-12T06:01:00;418.50;;;392.27;;
46613;SDS011;32338;50.430;6.806;2022-09-12T06:03:28;433.10;;;405.10;;
46613;SDS011;32338;50.430;6.806;2022-09-12T06:05:55;406.73;;;380.73;;
46613;SDS011;32338;50.430;6.806;2022-09-12T06:08:22;398.55;;;374.20;;
46613;SDS011;32338;50.430;6.806;2022-09-12T06:10:50;388.05;;;363.30;;
46613;SDS011;32338;50.430;6.806;2022-09-12T06:13:17;398.95;;;373.73;;
46613;SDS011;32338;50.430;6.806;2022-09-12T06:15:43;390.13;;;365.60;;
46613;SDS011;32338;50.430;6.806;2022-09-12T06:18:10;399.02;;;373.70;;
46613;SDS011;32338;50.430;6.806;2022-09-12T06:20:37;409.20;;;383.60;;
46613;SDS011;32338;50.430;6.806;2022-09-12T06:23:03;422.85;;;396.60;;
46613;SDS011;32338;50.430;6.806;2022-09-12T06:25:30;410.02;;;384.00;;
46613;SDS011;32338;50.430;6.806;2022-09-12T06:27:58;395.83;;;370.50;;
46613;SDS011;32338;50.430;6.806;2022-09-12T06:30:25;409.35;;;383.73;;
46613;SDS011;32338;50.430;6.806;2022-09-12T06:32:52;426.73;;;399.42;;
46613;SDS011;32338;50.430;6.806;2022-09-12T06:35:20;385.05;;;360.88;;
46613;SDS011;32338;50.430;6.806;2022-09-12T06:37:47;407.38;;;381.90;;
46613;SDS011;32338;50.430;6.806;2022-09-12T06:40:14;401.88;;;376.52;;
46613;SDS011;32338;50.430;6.806;2022-09-12T06:42:40;396.83;;;371.02;;
46613;SDS011;32338;50.430;6.806;2022-09-12T06:45:09;404.98;;;379.83;;
46613;SDS011;32338;50.430;6.806;2022-09-12T06:47:36;404.48;;;379.60;;
46613;SDS011;32338;50.430;6.806;2022-09-12T06:50:03;399.50;;;373.85;;
46613;SDS011;32338;50.430;6.806;2022-09-12T06:52:30;399.42;;;374.55;;
46613;SDS011;32338;50.430;6.806;2022-09-12T06:54:58;389.85;;;364.80;;
46613;SDS011;32338;50.430;6.806;2022-09-12T06:57:25;404.20;;;378.55;;
46613;SDS011;32338;50.430;6.806;2022-09-12T06:59:54;392.52;;;367.13;;
46613;SDS011;32338;50.430;6.806;2022-09-12T07:02:22;407.45;;;381.50;;
46613;SDS011;32338;50.430;6.806;2022-09-12T07:04:49;408.88;;;382.48;;
46613;SDS011;32338;50.430;6.806;2022-09-12T07:07:16;402.88;;;377.08;;
46613;SDS011;32338;50.430;6.806;2022-09-12T07:09:43;396.55;;;371.98;;
46613;SDS011;32338;50.430;6.806;2022-09-12T07:12:10;406.98;;;380.48;;
46613;SDS011;32338;50.430;6.806;2022-09-12T07:14:37;395.20;;;369.58;;
46613;SDS011;32338;50.430;6.806;2022-09-12T07:17:04;395.77;;;370.80;;
46613;SDS011;32338;50.430;6.806;2022-09-12T07:19:32;406.58;;;380.77;;
46613;SDS011;32338;50.430;6.806;2022-09-12T07:21:59;433.75;;;407.17;;
46613;SDS011;32338;50.430;6.806;2022-09-12T07:24:26;437.13;;;409.20;;
46613;SDS011;32338;50.430;6.806;2022-09-12T07:26:53;427.58;;;400.48;;
46613;SDS011;32338;50.430;6.806;2022-09-12T07:29:20;412.35;;;386.45;;
46613;SDS011;32338;50.430;6.806;2022-09-12T07:31:46;413.83;;;387.45;;
46613;SDS011;32338;50.430;6.806;2022-09-12T07:34:13;434.92;;;407.33;;
46613;SDS011;32338;50.430;6.806;2022-09-12T07:36:42;414.05;;;388.33;;
46613;SDS011;32338;50.430;6.806;2022-09-12T07:39:09;415.20;;;388.92;;
46613;SDS011;32338;50.430;6.806;2022-09-12T07:41:36;432.30;;;405.33;;
46613;SDS011;32338;50.430;6.806;2022-09-12T07:44:03;424.85;;;397.92;;
46613;SDS011;32338;50.430;6.806;2022-09-12T07:46:30;423.52;;;396.50;;
46613;SDS011;32338;50.430;6.806;2022-09-12T07:48:58;417.67;;;391.27;;
46613;SDS011;32338;50.430;6.806;2022-09-12T07:51:26;422.63;;;395.13;;
46613;SDS011;32338;50.430;6.806;2022-09-12T07:53:55;450.92;;;422.50;;
46613;SDS011;32338;50.430;6.806;2022-09-12T07:56:22;440.92;;;412.58;;
46613;SDS011;32338;50.430;6.806;2022-09-12T07:58:49;428.13;;;401.35;;
46613;SDS011;32338;50.430;6.806;2022-09-12T08:01:16;416.38;;;390.02;;
46613;SDS011;32338;50.430;6.806;2022-09-12T08:03:45;429.63;;;402.88;;
46613;SDS011;32338;50.430;6.806;2022-09-12T08:06:14;442.58;;;414.45;;
46613;SDS011;32338;50.430;6.806;2022-09-12T08:08:44;459.08;;;429.50;;
46613;SDS011;32338;50.430;6.806;2022-09-12T08:11:12;435.88;;;408.85;;
46613;SDS011;32338;50.430;6.806;2022-09-12T08:13:41;421.88;;;395.23;;
46613;SDS011;32338;50.430;6.806;2022-09-12T08:16:10;437.15;;;410.58;;
46613;SDS011;32338;50.430;6.806;2022-09-12T08:18:38;456.00;;;428.00;;
46613;SDS011;32338;50.430;6.806;2022-09-12T08:21:08;447.23;;;419.48;;
46613;SDS011;32338;50.430;6.806;2022-09-12T08:23:37;390.08;;;366.38;;
46613;SDS011;32338;50.430;6.806;2022-09-12T08:26:04;405.60;;;380.48;;
46613;SDS011;32338;50.430;6.806;2022-09-12T08:28:33;416.83;;;391.73;;
46613;SDS011;32338;50.430;6.806;2022-09-12T08:31:01;396.58;;;372.15;;
46613;SDS011;32338;50.430;6.806;2022-09-12T08:33:28;412.85;;;387.23;;
46613;SDS011;32338;50.430;6.806;2022-09-12T08:36:07;417.58;;;392.08;;
46613;SDS011;32338;50.430;6.806;2022-09-12T08:38:35;399.65;;;375.30;;
46613;SDS011;32338;50.430;6.806;2022-09-12T08:41:04;385.33;;;362.20;;
46613;SDS011;32338;50.430;6.806;2022-09-12T08:43:42;379.90;;;356.63;;
46613;SDS011;32338;50.430;6.806;2022-09-12T08:46:21;348.35;;;326.98;;
46613;SDS011;32338;50.430;6.806;2022-09-12T08:48:51;372.80;;;350.10;;
46613;SDS011;32338;50.430;6.806;2022-09-12T08:51:18;378.95;;;355.25;;
46613;SDS011;32338;50.430;6.806;2022-09-12T08:53:45;368.73;;;345.98;;
46613;SDS011;32338;50.430;6.806;2022-09-12T08:56:15;366.55;;;342.98;;
46613;SDS011;32338;50.430;6.806;2022-09-12T08:58:44;352.25;;;330.85;;
46613;SDS011;32338;50.430;6.806;2022-09-12T09:01:13;388.13;;;363.90;;
46613;SDS011;32338;50.430;6.806;2022-09-12T09:06:51;336.58;;;315.92;;
46613;SDS011;32338;50.430;6.806;2022-09-12T09:09:34;315.98;;;296.92;;
46613;SDS011;32338;50.430;6.806;2022-09-12T09:12:11;353.60;;;331.92;;
46613;SDS011;32338;50.430;6.806;2022-09-12T09:14:51;314.83;;;295.17;;
46613;SDS011;32338;50.430;6.806;2022-09-12T09:17:31;285.50;;;268.58;;
46613;SDS011;32338;50.430;6.806;2022-09-12T09:20:04;316.30;;;297.38;;
46613;SDS011;32338;50.430;6.806;2022-09-12T09:22:39;269.38;;;253.15;;
46613;SDS011;32338;50.430;6.806;2022-09-12T09:25:11;275.55;;;259.35;;
46613;SDS011;32338;50.430;6.806;2022-09-12T09:27:42;254.48;;;239.85;;
46613;SDS011;32338;50.430;6.806;2022-09-12T09:30:17;264.33;;;248.85;;
46613;SDS011;32338;50.430;6.806;2022-09-12T09:32:46;282.05;;;265.48;;
46613;SDS011;32338;50.430;6.806;2022-09-12T09:35:18;254.98;;;240.13;;
46613;SDS011;32338;50.430;6.806;2022-09-12T09:37:55;258.80;;;243.73;;
46613;SDS011;32338;50.430;6.806;2022-09-12T09:40:28;362.20;;;339.70;;
46613;SDS011;32338;50.430;6.806;2022-09-12T09:43:04;264.55;;;248.75;;
46613;SDS011;32338;50.430;6.806;2022-09-12T09:45:38;288.52;;;271.75;;
46613;SDS011;32338;50.430;6.806;2022-09-12T09:48:15;277.73;;;261.45;;
46613;SDS011;32338;50.430;6.806;2022-09-12T09:50:44;272.63;;;256.98;;
46613;SDS011;32338;50.430;6.806;2022-09-12T09:53:15;281.42;;;265.15;;
46613;SDS011;32338;50.430;6.806;2022-09-12T09:55:52;261.42;;;246.15;;
46613;SDS011;32338;50.430;6.806;2022-09-12T09:58:27;262.92;;;247.68;;
46613;SDS011;32338;50.430;6.806;2022-09-12T10:00:58;238.60;;;224.55;;
46613;SDS011;32338;50.430;6.806;2022-09-12T10:03:32;283.35;;;266.85;;
46613;SDS011;32338;50.430;6.806;2022-09-12T10:06:05;256.80;;;241.75;;
46613;SDS011;32338;50.430;6.806;2022-09-12T10:08:33;261.80;;;246.38;;
46613;SDS011;32338;50.430;6.806;2022-09-12T10:11:02;264.92;;;249.73;;
46613;SDS011;32338;50.430;6.806;2022-09-12T10:13:35;260.77;;;245.88;;
46613;SDS011;32338;50.430;6.806;2022-09-12T10:16:16;260.10;;;245.23;;
46613;SDS011;32338;50.430;6.806;2022-09-12T10:18:44;222.57;;;209.60;;
46613;SDS011;32338;50.430;6.806;2022-09-12T10:21:12;187.88;;;176.82;;
46613;SDS011;32338;50.430;6.806;2022-09-12T10:24:04;198.15;;;186.50;;
46613;SDS011;32338;50.430;6.806;2022-09-12T10:26:49;230.43;;;216.77;;
46613;SDS011;32338;50.430;6.806;2022-09-12T10:29:20;193.15;;;181.65;;
46613;SDS011;32338;50.430;6.806;2022-09-12T10:31:51;240.60;;;226.70;;
46613;SDS011;32338;50.430;6.806;2022-09-12T10:34:22;142.38;;;134.20;;
46613;SDS011;32338;50.430;6.806;2022-09-12T10:37:00;148.80;;;140.18;;
46613;SDS011;32338;50.430;6.806;2022-09-12T10:39:29;193.25;;;181.75;;
46613;SDS011;32338;50.430;6.806;2022-09-12T10:41:58;214.80;;;202.48;;
46613;SDS011;32338;50.430;6.806;2022-09-12T10:44:26;187.10;;;176.10;;
46613;SDS011;32338;50.430;6.806;2022-09-12T10:46:55;134.10;;;126.22;;
46613;SDS011;32338;50.430;6.806;2022-09-12T10:49:24;136.52;;;128.50;;
46613;SDS011;32338;50.430;6.806;2022-09-12T10:51:53;117.25;;;110.57;;
46613;SDS011;32338;50.430;6.806;2022-09-12T10:54:24;120.22;;;113.45;;
46613;SDS011;32338;50.430;6.806;2022-09-12T10:59:59;98.03;;;92.47;;
46613;SDS011;32338;50.430;6.806;2022-09-12T11:02:39;100.60;;;94.75;;
46613;SDS011;32338;50.430;6.806;2022-09-12T11:05:17;106.32;;;100.15;;
46613;SDS011;32338;50.430;6.806;2022-09-12T11:07:53;92.00;;;86.75;;
46613;SDS011;32338;50.430;6.806;2022-09-12T11:10:30;95.93;;;90.40;;
46613;SDS011;32338;50.430;6.806;2022-09-12T11:13:13;90.22;;;85.03;;
46613;SDS011;32338;50.430;6.806;2022-09-12T11:15:50;74.10;;;69.90;;
46613;SDS011;32338;50.430;6.806;2022-09-12T11:18:41;98.57;;;92.60;;
46613;SDS011;32338;50.430;6.806;2022-09-12T11:21:31;91.03;;;86.03;;
46613;SDS011;32338;50.430;6.806;2022-09-12T11:27:02;50.53;;;47.63;;
46613;SDS011;32338;50.430;6.806;2022-09-12T11:29:40;54.90;;;52.00;;
46613;SDS011;32338;50.430;6.806;2022-09-12T11:35:10;62.03;;;58.75;;
46613;SDS011;32338;50.430;6.806;2022-09-12T11:40:48;53.90;;;51.00;;
46613;SDS011;32338;50.430;6.806;2022-09-12T11:43:22;67.05;;;63.45;;
46613;SDS011;32338;50.430;6.806;2022-09-12T11:45:55;47.10;;;44.63;;
46613;SDS011;32338;50.430;6.806;2022-09-12T11:48:30;50.88;;;48.20;;
46613;SDS011;32338;50.430;6.806;2022-09-12T11:51:22;46.17;;;43.88;;
46613;SDS011;32338;50.430;6.806;2022-09-12T11:54:03;46.20;;;43.83;;
46613;SDS011;32338;50.430;6.806;2022-09-12T11:56:37;42.53;;;40.40;;
46613;SDS011;32338;50.430;6.806;2022-09-12T11:59:11;50.13;;;47.63;;
46613;SDS011;32338;50.430;6.806;2022-09-12T12:01:45;45.47;;;43.08;;
46613;SDS011;32338;50.430;6.806;2022-09-12T12:04:17;39.70;;;37.75;;
46613;SDS011;32338;50.430;6.806;2022-09-12T12:06:51;42.85;;;40.63;;
46613;SDS011;32338;50.430;6.806;2022-09-12T12:09:22;29.17;;;27.77;;
46613;SDS011;32338;50.430;6.806;2022-09-12T12:11:49;42.80;;;40.53;;
46613;SDS011;32338;50.430;6.806;2022-09-12T12:14:21;33.75;;;31.83;;
46613;SDS011;32338;50.430;6.806;2022-09-12T12:16:51;38.42;;;36.42;;
46613;SDS011;32338;50.430;6.806;2022-09-12T12:19:23;37.10;;;35.10;;
46613;SDS011;32338;50.430;6.806;2022-09-12T12:21:58;32.20;;;30.60;;
46613;SDS011;32338;50.430;6.806;2022-09-12T12:24:32;35.30;;;33.40;;
46613;SDS011;32338;50.430;6.806;2022-09-12T12:26:59;44.55;;;41.90;;
46613;SDS011;32338;50.430;6.806;2022-09-12T12:29:42;31.20;;;29.58;;
46613;SDS011;32338;50.430;6.806;2022-09-12T12:32:20;27.67;;;26.27;;
46613;SDS011;32338;50.430;6.806;2022-09-12T12:34:47;27.13;;;25.80;;
46613;SDS011;32338;50.430;6.806;2022-09-12T12:40:21;24.17;;;23.08;;
46613;SDS011;32338;50.430;6.806;2022-09-12T12:45:48;24.58;;;23.30;;
46613;SDS011;32338;50.430;6.806;2022-09-12T12:48:26;28.08;;;26.77;;
46613;SDS011;32338;50.430;6.806;2022-09-12T12:54:32;31.30;;;29.90;;
46613;SDS011;32338;50.430;6.806;2022-09-12T12:57:15;20.45;;;19.60;;
46613;SDS011;32338;50.430;6.806;2022-09-12T12:59:46;22.20;;;21.20;;
46613;SDS011;32338;50.430;6.806;2022-09-12T13:02:17;21.75;;;20.52;;
46613;SDS011;32338;50.430;6.806;2022-09-12T13:04:47;22.17;;;21.13;;
46613;SDS011;32338;50.430;6.806;2022-09-12T13:07:20;38.65;;;36.75;;
46613;SDS011;32338;50.430;6.806;2022-09-12T13:09:54;26.13;;;24.67;;
46613;SDS011;32338;50.430;6.806;2022-09-12T13:12:22;22.85;;;21.95;;
46613;SDS011;32338;50.430;6.806;2022-09-12T13:14:52;24.17;;;23.13;;
46613;SDS011;32338;50.430;6.806;2022-09-12T13:17:24;28.85;;;27.55;;
46613;SDS011;32338;50.430;6.806;2022-09-12T13:20:01;27.83;;;26.50;;
46613;SDS011;32338;50.430;6.806;2022-09-12T13:22:38;24.42;;;23.35;;
46613;SDS011;32338;50.430;6.806;2022-09-12T13:25:18;26.38;;;25.02;;
46613;SDS011;32338;50.430;6.806;2022-09-12T13:27:58;24.05;;;23.05;;
46613;SDS011;32338;50.430;6.806;2022-09-12T13:30:26;22.45;;;21.55;;
46613;SDS011;32338;50.430;6.806;2022-09-12T13:32:55;19.85;;;19.13;;
46613;SDS011;32338;50.430;6.806;2022-09-12T13:35:27;19.35;;;18.55;;
46613;SDS011;32338;50.430;6.806;2022-09-12T13:38:06;19.48;;;18.63;;
46613;SDS011;32338;50.430;6.806;2022-09-12T13:40:51;20.05;;;19.15;;
46613;SDS011;32338;50.430;6.806;2022-09-12T13:43:34;18.25;;;17.55;;
46613;SDS011;32338;50.430;6.806;2022-09-12T13:46:05;17.30;;;16.65;;
46613;SDS011;32338;50.430;6.806;2022-09-12T13:48:33;18.38;;;17.63;;
46613;SDS011;32338;50.430;6.806;2022-09-12T13:51:00;19.38;;;18.10;;
46613;SDS011;32338;50.430;6.806;2022-09-12T13:53:30;16.63;;;16.02;;
46613;SDS011;32338;50.430;6.806;2022-09-12T13:56:11;15.23;;;14.50;;
46613;SDS011;32338;50.430;6.806;2022-09-12T13:58:49;16.20;;;15.60;;
46613;SDS011;32338;50.430;6.806;2022-09-12T14:01:19;17.00;;;16.20;;
46613;SDS011;32338;50.430;6.806;2022-09-12T14:03:49;16.27;;;15.40;;
46613;SDS011;32338;50.430;6.806;2022-09-12T14:06:36;14.82;;;14.32;;
46613;SDS011;32338;50.430;6.806;2022-09-12T14:09:13;15.93;;;15.23;;
46613;SDS011;32338;50.430;6.806;2022-09-12T14:11:43;19.05;;;17.95;;
46613;SDS011;32338;50.430;6.806;2022-09-12T14:14:17;16.35;;;15.65;;
46613;SDS011;32338;50.430;6.806;2022-09-12T14:16:52;15.70;;;14.95;;
46613;SDS011;32338;50.430;6.806;2022-09-12T14:19:22;14.32;;;13.70;;
46613;SDS011;32338;50.430;6.806;2022-09-12T14:21:51;12.43;;;12.00;;
46613;SDS011;32338;50.430;6.806;2022-09-12T14:24:21;13.35;;;12.80;;
46613;SDS011;32338;50.430;6.806;2022-09-12T14:26:53;14.38;;;13.75;;
46613;SDS011;32338;50.430;6.806;2022-09-12T14:29:22;12.48;;;11.95;;
46613;SDS011;32338;50.430;6.806;2022-09-12T14:31:59;17.02;;;16.27;;
46613;SDS011;32338;50.430;6.806;2022-09-12T14:34:27;16.58;;;15.90;;
46613;SDS011;32338;50.430;6.806;2022-09-12T14:36:55;17.10;;;16.40;;
46613;SDS011;32338;50.430;6.806;2022-09-12T14:39:23;15.57;;;15.00;;
46613;SDS011;32338;50.430;6.806;2022-09-12T14:42:03;16.65;;;15.85;;
46613;SDS011;32338;50.430;6.806;2022-09-12T14:44:36;14.88;;;14.18;;
46613;SDS011;32338;50.430;6.806;2022-09-12T14:47:11;15.02;;;14.43;;
46613;SDS011;32338;50.430;6.806;2022-09-12T14:49:40;15.82;;;15.10;;